WEATHER DATA

YESTERDAY
Time Temp. Dewp. Hum. Wind dir Wind speed Wind gust Bar. 1h Prec. 24h Prec.
00:04 8.1 4.5 78 255 2.2 5.6 1018 0.1360 0.1000
00:15 7.9 4.8 81 251 1.9 4.7 1018.2 0.1360 0.1000
00:31 7.6 5.1 84 252 1.9 5.3 1018.1 0.4080 0.4000
00:40 7.5 5.3 86 270 1.7 4.7 1018.2 0.5440 0.5000
00:50 7.4 5.4 87 259 1.4 2.8 1018.2 0.8170 0.8000
01:01 7.2 5.5 89 270 1.1 2.8 1018 0.8170 0.8000
01:11 7.1 5.6 90 246 0.8 3.1 1018 0.6810 0.8000
01:20 7 5.6 91 231 1.1 3.9 1018.2 0.5450 0.8000
01:30 7 5.6 91 225 1.1 2.5 1018 0.4090 0.8000
01:41 6.9 5.5 91 211 0.8 1.9 1017.7 0.2730 0.8000
01:51 6.8 5.4 91 211 0.8 1.9 1017.7 0.0000 0.8000
02:00 6.8 5.6 92 221 1.1 3.9 1017.6 0.0000 0.8000
02:11 6.9 5.8 93 220 1.1 3.6 1017.4 0.0000 0.8000
02:21 7 6.1 94 215 1.4 4.2 1017.4 0.0000 0.8000
02:30 7.2 6.5 95 224 1.7 4.4 1017.5 0.0000 0.8000
02:41 7.5 6.8 95 237 1.7 5.3 1017.4 0.0000 0.8000
02:51 7.8 6.9 94 248 1.7 5.6 1017.2 0.1360 1.0000
03:01 7.9 6.5 91 242 1.9 4.7 1017.2 0.2720 1.1000
03:05 7.9 6.5 91 261 1.9 4.7 1017.1 0.4080 1.2000
03:15 7.9 6.5 91 258 1.7 4.7 1017.1 1.0890 1.9000
03:25 7.8 6.4 91 255 1.7 4.4 1016.8 1.2250 2.0000
03:35 7.7 6.5 92 245 1.4 2.8 1016.7 1.4970 2.3000
03:45 7.7 6.5 92 226 1.1 3.1 1016.4 1.3610 2.3000
03:56 7.6 6.5 93 223 0.8 2.5 1016.2 1.2250 2.3000
04:05 7.6 6.7 94 225 1.1 2.2 1015.9 1.4980 2.9000
04:15 7.5 6.8 95 222 1.4 4.4 1015.9 0.9530 3.0000
04:26 7.5 6.8 95 230 1.7 5.6 1016 1.4990 3.7000
04:36 7.5 6.8 95 236 1.4 4.4 1016 2.0440 4.4000
04:46 7.4 6.7 95 224 1.9 5 1016 2.5890 4.9000
04:55 7.4 6.7 95 241 1.4 4.2 1016 3.2710 5.7000
05:06 7.3 6.6 95 226 1.9 5 1015.7 3.2720 6.3000
05:16 7.3 6.6 95 253 1.9 5 1015.6 3.5450 6.8000
05:26 7.3 6.6 95 242 1.7 5.8 1015.4 3.0000 7.2000
05:36 7.2 6.5 95 227 1.7 4.7 1014.9 3.1370 7.6000
05:46 7.2 6.5 95 237 1.7 5.6 1014.5 2.5910 7.9000
05:56 7.1 6.4 95 228 1.7 3.9 1014.2 2.0450 8.0000
06:06 7.1 6.4 95 227 1.9 5 1014.3 1.7710 8.3000
06:16 7 6.3 95 235 1.7 5.3 1014 1.6340 8.7000
06:26 7 6.3 95 244 1.1 2.8 1013.8 1.9080 9.3000
06:36 6.9 6.2 95 234 0.8 2.5 1013.3 1.9080 9.7000
06:50 6.8 6.2 96 226 0.8 2.2 1012.9 2.0440 10.0000
06:59 6.8 6.2 96 212 0.8 2.2 1012.5 2.1810 10.4000
07:10 6.7 6.1 96 207 1.1 2.2 1012 2.3170 10.9000
07:20 6.6 6 96 206 0.8 2.2 1011.5 2.1800 11.2000
07:29 6.6 6.2 97 206 0.8 1.9 1011.6 1.9060 11.5000
07:40 6.5 6.1 97 221 0.8 1.4 1011.4 1.9070 11.7000
07:50 6.5 6.1 97 214 0.8 1.9 1011 2.0430 12.0000
08:00 6.5 6.1 97 217 1.1 2.8 1010.6 2.3160 12.7000
08:09 6.5 6.2 98 228 0.8 1.9 1010.4 2.0430 13.0000
08:20 6.4 6.1 98 217 0.6 1.7 1009.9 2.1800 13.4000
08:30 6.5 6.2 98 228 0.8 1.7 1009.7 2.5900 14.0000
08:40 6.5 6.2 98 228 1.7 3.6 1009.3 3.1350 14.9000
08:50 6.5 6.2 98 217 1.1 2.2 1009 3.6810 15.7000
09:00 6.5 6.2 98 196 0.8 1.9 1008.6 3.5450 16.2000
09:08 6.5 6.2 98 201 0.8 2.5 1008.1 3.9550 16.9000
09:18 6.5 6.2 98 170 0.6 1.4 1007.7 4.2280 17.6000
09:27 6.5 6.2 98 180 0.3 1.1 1007.3 4.0920 18.1000
09:37 6.6 6.3 98 166 0.6 1.7 1007 3.8200 18.7000
09:48 6.6 6.5 99 178 0.6 1.7 1006.8 3.6840 19.4000
09:58 6.6 6.5 99 184 0.8 2.5 1006.3 3.8200 20.0000
10:07 6.7 6.6 99 187 0.8 2.8 1005.9 3.2740 20.4000
10:18 6.8 6.7 99 185 0.8 3.1 1005.7 3.1370 21.0000
10:28 6.9 6.9 100 193 1.1 2.8 1005.4 3.2730 21.7000
10:38 7.2 7.2 100 222 1.4 3.6 1004.9 3.5450 22.5000
10:49 7.8 7.8 100 230 4.4 11.9 1004.8 3.4090 23.2000
10:59 8.6 8.6 100 234 3.1 6.4 1004.9 3.1350 23.4000
11:09 9.4 9.4 100 240 3.6 9.2 1004.6 3.2720 23.9000
11:19 10.1 10.1 100 243 3.9 10.8 1004.4 2.5900 24.0000
11:26 10.4 10.4 100 245 4.2 10.8 1004.3 2.0440 24.1000
11:36 10.7 10.7 100 241 4.4 11.7 1004.7 1.6340 24.4000
11:48 10.8 10.6 99 239 3.9 11.4 1004.6 1.6330 24.8000
11:58 10.9 10.6 98 240 3.9 8.1 1004.6 1.6330 25.1000
12:08 11 10.5 97 234 3.1 7.8 1004.7 1.4960 25.4000
12:23 11 10.5 97 240 3.9 11.9 1004.4 1.3600 25.4000
12:33 11 10.4 96 241 3.1 7.8 1004.3 1.2240 25.5000
12:43 11 10.5 97 234 3.6 7.5 1004.4 1.0880 25.6000
12:53 11 10.5 97 243 3.6 8.1 1004.7 0.8160 25.8000
13:03 11 10.5 97 236 2.8 6.1 1004.6 0.5440 25.8000
13:13 11 10.7 98 253 2.8 9.2 1004.5 0.5440 25.9000
13:33 11 10.7 98 241 3.1 8.6 1004.4 0.6800 26.2000
13:44 11 10.7 98 242 3.1 7.5 1004.4 0.5440 26.2000
13:53 11.1 10.6 97 248 3.6 10.6 1004.3 0.4080 26.2000
14:03 11.2 10.7 97 228 3.9 8.3 1004.5 0.2720 26.2000
14:24 11.3 10.7 96 242 2.8 8.1 1004.6 0.0000 26.2000
14:33 11.2 10.6 96 246 2.2 5 1004.8 0.2730 26.4000
14:43 11.2 10.7 97 259 2.8 7.5 1004.9 1.0910 27.3000
14:53 11.2 10.9 98 264 3.9 8.6 1005.2 1.9090 28.1000
15:04 11.1 9.7 91 281 3.6 7.8 1005.6 1.9090 28.1000
15:14 10.9 9 88 290 4.2 9.4 1006.4 1.9090 28.1000
15:24 10.7 8.8 88 291 4.4 11.7 1006.6 1.6360 28.1000
15:34 10.5 8.4 87 286 4.2 9.2 1007 0.8180 28.1000
15:44 10.4 8.3 87 291 4.2 8.6 1007.5 0.0000 28.1000
15:54 10.3 7.9 85 291 3.9 8.1 1008.1 0.0000 28.1000
16:04 10.1 7.3 83 280 3.6 7.5 1008.4 0.0000 28.1000
16:14 9.8 7.1 83 287 4.2 8.6 1009 0.0000 28.1000
16:34 9.2 6.5 83 288 4.7 12.2 1009.6 0.0000 28.1000
16:43 9 6.4 84 291 3.9 9.4 1010 0.0000 28.1000
16:53 8.7 6.5 86 296 3.9 9.2 1010.3 0.0000 28.1000
17:03 8.4 6.2 86 295 2.8 6.7 1010.8 0.0000 28.1000
17:14 8.1 5.9 86 290 3.6 8.1 1011 0.0000 28.1000
17:27 8 5.8 86 299 3.9 11.4 1011.5 0.0000 28.1000
17:36 7.9 5.5 85 301 4.2 8.6 1012 0.0000 28.1000
17:46 7.7 5.2 84 300 3.9 8.1 1012.5 0.0000 28.1000
17:56 7.5 5 84 298 3.1 8.1 1012.7 0.0000 28.1000
18:07 7.3 5.1 86 303 3.6 7.5 1013.2 0.0000 28.1000
18:16 7.1 4.6 84 300 3.9 6.7 1013.7 0.0000 28.1000
18:26 6.8 4.1 83 305 4.2 7.8 1013.9 0.0000 28.1000
18:37 6.6 4.1 84 296 3.9 8.1 1014.5 0.0000 28.1000
18:47 6.4 4.2 86 294 2.5 5.3 1014.8 0.0000 28.1000
18:56 6.3 4.1 86 295 2.8 6.1 1015.2 0.0000 28.1000
19:06 6.2 4.2 87 291 2.2 4.2 1015.1 0.0000 28.1000
19:17 6.1 3.9 86 284 1.9 6.1 1015.3 0.0000 28.1000
19:26 6 3.8 86 279 1.7 4.2 1015.4 0.0000 28.1000
19:36 5.9 3.7 86 277 1.9 4.4 1015.8 0.0000 28.1000
19:47 5.9 3.7 86 280 1.9 4.2 1016.3 0.0000 28.1000
19:57 5.8 3.8 87 280 1.4 3.1 1016.6 0.0000 28.1000
20:06 5.8 3.8 87 283 1.1 2.8 1017.1 0.0000 28.1000
20:17 5.8 3.8 87 280 1.7 4.2 1017.4 0.0000 28.1000
20:27 5.9 3.7 86 288 2.2 6.1 1017.5 0.0000 28.1000
20:37 5.9 3.7 86 285 2.8 6.1 1018.1 0.0000 28.1000
20:46 5.9 3.6 85 293 2.2 5 1018.4 0.0000 28.1000
20:57 5.9 3.6 85 282 2.2 4.4 1018.6 0.0000 28.1000
21:07 5.9 3.4 84 281 1.9 5 1019 0.0000 28.1000
21:16 5.8 3.1 83 285 1.9 4.7 1019.1 0.0000 28.1000
21:27 5.7 3 83 291 1.4 5 1019.4 0.0000 28.1000
21:37 5.6 2.9 83 285 1.9 4.4 1019.5 0.0000 28.1000
21:47 5.6 2.8 82 283 1.7 3.9 1019.7 0.0000 28.1000
21:56 5.5 2.7 82 284 1.4 3.1 1019.8 0.0000 28.1000
22:07 5.4 2.4 81 287 1.7 3.6 1020.1 0.0000 28.1000
22:17 5.3 2.3 81 259 1.4 3.6 1020.2 0.0000 28.1000
22:27 5.2 2.4 82 270 1.4 3.9 1020.4 0.0000 28.1000
22:37 5.2 2.4 82 260 1.7 3.9 1020.3 0.0000 28.1000
22:47 5.1 2.3 82 270 1.1 3.6 1020.7 0.0000 28.1000
22:57 5 2.2 82 259 1.1 2.5 1020.8 0.0000 28.1000
23:07 4.9 2.3 83 259 0.8 1.9 1020.9 0.0000 28.1000
23:18 4.8 2.2 83 261 1.1 2.2 1021.1 0.0000 28.1000
23:27 4.7 2.2 84 270 0.8 1.9 1021.2 0.0000 28.1000
23:37 4.6 2.1 84 270 0.6 1.4 1021.2 0.0000 28.1000
23:48 4.4 1.9 84 247 0.6 1.7 1021.3 0.0000 28.1000
23:58 4.3 2 85 252 0.6 1.9 1021.4 0.0000

DAY STATISTIC

2020-02-23
TEMPERATURE
AVERAGE
7.6
HIGH
11.3
14:24
LOW
4.3
23:58
PRESSURE
AVERAGE
1012.8
HIGH
1021.4
23:58
LOW
1004.3
11:26
DEWPOINT
AVERAGE
6.2
HIGH
10.9
14:53
LOW
1.9
23:48
HUMIDITY
AVERAGE
91
HIGH
100
10:28
LOW
78
00:04
WIND SPEED
AVERAGE
2.1
HIGH
4.7
16:34
WIND GUST
AVERAGE
5.2
HIGH
12.2
16:34
WIND DIRECTION
PREVAILING
SW
45%
N
0.0
NE
0.0
E
0.0
SE
0.0
S
7.1
SW
45.0
W
38.6
NW
9.3
PRECIPITATION
RAIN HOUR
4.2
RAIN DAY
28.1
TEMPERATURE (°C)
LOW
4.3
HIGH
11.3
AVERAGE
7.6
PRESSURE (hpa)
LOW
1004.3
HIGH
1021.4
AVERAGE
1012.8
DEVICE